Time;durP1;ratioP1;P1;durP2;ratioP2;P2;SDS_P1;SDS_P2;PMS_P1;PMS_P2;Temp;Humidity;BMP_temperature;BMP_pressure;BME280_temperature;BME280_humidity;BME280_pressure;Samples;Min_cycle;Max_cycle;Signal;HPM_P1;HPM_P2
2022/04/15 00:00:21;;;;;;;1.88;1.73;;;;;;;12.99;63.02;101236.69;4878176;29;20057;-62
2022/04/15 00:02:48;;;;;;;3.28;2.40;;;;;;;12.90;62.38;101244.69;4878650;29;20066;-62
2022/04/15 00:05:36;;;;;;;1.23;1.23;;;;;;;12.88;63.29;101236.75;4878499;29;20052;-62
2022/04/15 00:08:05;;;;;;;4.03;2.03;;;;;;;12.90;63.66;101241.94;4878990;29;20547;-62
2022/04/15 00:10:34;;;;;;;2.50;2.15;;;;;;;12.77;63.82;101240.63;4878885;29;20053;-62
2022/04/15 00:13:06;;;;;;;2.70;1.98;;;;;;;12.75;63.60;101240.06;4878810;29;20412;-62
2022/04/15 00:15:35;;;;;;;4.88;2.17;;;;;;;12.85;63.39;101234.53;4878885;29;20056;-62
2022/04/15 00:18:04;;;;;;;3.40;1.63;;;;;;;12.95;63.14;101241.94;4878012;29;20049;-62
2022/04/15 00:20:32;;;;;;;7.30;2.33;;;;;;;12.87;64.28;101243.31;4878442;29;20547;-62
2022/04/15 00:23:00;;;;;;;1.92;1.60;;;;;;;12.90;64.16;101240.03;4878677;29;20052;-62
2022/04/15 00:25:29;;;;;;;2.25;1.40;;;;;;;12.86;64.40;101246.38;4878824;29;20503;-62
2022/04/15 00:27:57;;;;;;;4.30;2.08;;;;;;;12.70;65.35;101240.91;4878581;29;20554;-62
2022/04/15 00:30:24;;;;;;;1.67;1.58;;;;;;;12.65;65.84;101243.66;4878308;29;20045;-62
2022/04/15 00:32:52;;;;;;;4.47;1.98;;;;;;;12.49;67.18;101235.47;4878397;29;20056;-62
2022/04/15 00:35:20;;;;;;;1.55;1.45;;;;;;;12.35;67.45;101237.94;4878586;29;20057;-62
2022/04/15 00:37:49;;;;;;;4.75;1.38;;;;;;;12.28;67.85;101237.41;4878238;29;20626;-62
2022/04/15 00:40:17;;;;;;;4.43;1.98;;;;;;;12.13;69.25;101231.91;4878660;29;20056;-62
2022/04/15 00:42:45;;;;;;;2.40;2.20;;;;;;;12.03;69.72;101239.00;4877642;29;20433;-62
2022/04/15 00:45:14;;;;;;;3.33;1.98;;;;;;;12.02;70.51;101237.34;4877498;29;20051;-62
2022/04/15 00:47:53;;;;;;;4.90;2.45;;;;;;;12.00;69.92;101231.34;4878437;29;20535;-62
2022/04/15 00:50:29;;;;;;;3.30;1.77;;;;;;;11.83;71.18;101234.31;4877943;29;20057;-60
2022/04/15 00:53:00;;;;;;;1.58;1.15;;;;;;;11.67;72.32;101219.75;4878316;29;20064;-60
2022/04/15 00:55:29;;;;;;;2.83;1.90;;;;;;;11.53;72.76;101216.72;4877616;29;20504;-63
2022/04/15 00:57:58;;;;;;;2.25;2.15;;;;;;;11.48;73.31;101217.53;4878145;29;20394;-60
2022/04/15 01:00:28;;;;;;;3.33;1.55;;;;;;;11.64;72.78;101220.31;4878064;29;20049;-60
2022/04/15 01:02:58;;;;;;;2.90;2.20;;;;;;;11.58;72.90;101227.69;4878184;29;20516;-60
2022/04/15 01:05:27;;;;;;;2.22;1.70;;;;;;;11.55;73.22;101222.78;4878112;29;20056;-60
2022/04/15 01:07:57;;;;;;;2.55;2.15;;;;;;;11.45;73.33;101220.84;4877988;29;20495;-61
2022/04/15 01:10:26;;;;;;;1.63;1.52;;;;;;;11.37;74.03;101215.88;4878355;29;20408;-63
2022/04/15 01:12:57;;;;;;;3.25;2.47;;;;;;;11.26;74.37;101210.38;4878284;29;20396;-63
2022/04/15 01:15:46;;;;;;;1.58;1.48;;;;;;;11.23;74.72;101212.78;4878107;29;20072;-63
2022/04/15 01:18:14;;;;;;;1.33;1.23;;;;;;;11.25;74.97;101216.91;4877995;29;20041;-63
2022/04/15 01:20:43;;;;;;;2.10;1.65;;;;;;;11.23;75.49;101210.06;4877734;29;20068;-63
2022/04/15 01:23:12;;;;;;;2.80;1.65;;;;;;;11.42;74.71;101213.13;4877602;29;20044;-63
2022/04/15 01:25:40;;;;;;;2.63;2.00;;;;;;;11.31;75.12;101214.19;4877712;29;20064;-63
2022/04/15 01:28:09;;;;;;;2.58;2.20;;;;;;;11.35;74.81;101218.06;4877876;29;20049;-63
2022/04/15 01:30:37;;;;;;;1.45;1.35;;;;;;;11.38;74.38;101223.81;4877835;29;20052;-63
2022/04/15 01:33:04;;;;;;;2.15;2.05;;;;;;;11.39;74.63;101224.66;4877498;29;20056;-63
2022/04/15 01:35:33;;;;;;;1.67;1.50;;;;;;;11.32;74.60;101219.41;4877620;29;20061;-63
2022/04/15 01:38:06;;;;;;;1.90;1.73;;;;;;;11.15;75.65;101228.66;4877779;29;20060;-63
2022/04/15 01:40:34;;;;;;;3.00;1.95;;;;;;;10.99;76.34;101222.31;4878004;29;20049;-63
2022/04/15 01:43:02;;;;;;;3.38;2.38;;;;;;;10.86;76.79;101223.59;4877843;29;20060;-63
2022/04/15 01:45:30;;;;;;;3.60;1.85;;;;;;;10.75;77.29;101230.13;4877394;29;20250;-63
2022/04/15 01:47:58;;;;;;;2.17;1.65;;;;;;;10.74;76.95;101220.25;4878209;29;20056;-63
2022/04/15 01:50:28;;;;;;;1.60;1.50;;;;;;;10.70;77.25;101222.69;4877078;29;20053;-62
2022/04/15 01:52:58;;;;;;;1.80;1.70;;;;;;;10.92;76.06;101216.25;4877509;29;20072;-63
2022/04/15 01:55:27;;;;;;;3.97;2.55;;;;;;;11.05;75.36;101222.34;4877454;29;20053;-63
2022/04/15 01:57:55;;;;;;;1.60;1.50;;;;;;;10.89;75.80;101216.78;4877620;29;20056;-62
2022/04/15 02:00:23;;;;;;;1.73;1.45;;;;;;;10.81;76.13;101215.38;4877657;29;20060;-63
2022/04/15 02:02:51;;;;;;;1.83;1.58;;;;;;;10.79;76.46;101222.22;4877508;29;20076;-63
2022/04/15 02:05:19;;;;;;;1.92;1.48;;;;;;;10.86;76.09;101228.28;4877767;29;20091;-63
2022/04/15 02:07:47;;;;;;;1.35;1.25;;;;;;;10.95;75.39;101221.19;4877573;29;20068;-60
2022/04/15 02:10:14;;;;;;;1.13;1.10;;;;;;;10.85;76.28;101221.97;4879191;29;20077;-61
2022/04/15 02:12:42;;;;;;;3.17;1.83;;;;;;;10.71;77.15;101232.56;4880695;29;20072;-61
2022/04/15 02:15:10;;;;;;;1.85;1.63;;;;;;;10.83;76.45;101229.63;4880459;29;20048;-61
2022/04/15 02:17:38;;;;;;;2.33;2.22;;;;;;;10.87;76.07;101229.91;4879794;29;20421;-61
2022/04/15 02:20:07;;;;;;;2.33;2.22;;;;;;;10.87;76.08;101224.44;4880866;29;20041;-61
2022/04/15 02:22:35;;;;;;;1.70;1.60;;;;;;;10.73;76.47;101226.81;4880802;29;20061;-61
2022/04/15 02:25:03;;;;;;;1.40;1.30;;;;;;;10.56;77.40;101224.28;4880415;29;20049;-61
2022/04/15 02:27:31;;;;;;;2.78;1.65;;;;;;;10.56;77.65;101230.56;4880804;29;20057;-62
2022/04/15 02:29:59;;;;;;;4.15;2.30;;;;;;;10.45;78.06;101224.19;4880481;29;20053;-61
2022/04/15 02:32:29;;;;;;;5.68;2.10;;;;;;;10.30;79.08;101221.31;4880538;29;20049;-61
2022/04/15 02:34:57;;;;;;;2.45;2.20;;;;;;;10.28;79.19;101223.50;4879891;29;20055;-61
2022/04/15 02:37:25;;;;;;;2.80;2.05;;;;;;;10.19;79.91;101221.25;4880546;29;20050;-61
2022/04/15 02:39:55;;;;;;;2.05;1.95;;;;;;;10.14;80.27;101221.22;4880006;29;20056;-61
2022/04/15 02:42:23;;;;;;;1.55;1.45;;;;;;;10.13;80.41;101224.19;4880387;29;20080;-61
2022/04/15 02:44:52;;;;;;;2.13;2.03;;;;;;;10.08;80.75;101219.53;4880644;29;20057;-61
2022/04/15 02:47:20;;;;;;;2.03;1.65;;;;;;;10.20;80.18;101230.25;4880478;29;20064;-61
2022/04/15 02:49:49;;;;;;;2.50;2.17;;;;;;;10.33;79.11;101229.00;4879710;29;20546;-61
2022/04/15 02:52:17;;;;;;;2.05;1.20;;;;;;;10.43;78.43;101231.84;4880475;29;20049;-61
2022/04/15 02:54:45;;;;;;;3.17;2.45;;;;;;;10.35;78.68;101235.88;4879982;29;20056;-61
2022/04/15 02:57:13;;;;;;;1.38;1.20;;;;;;;10.24;79.56;101231.41;4880195;29;20088;-61
2022/04/15 02:59:40;;;;;;;1.48;1.38;;;;;;;10.17;79.73;101225.34;4879979;29;20056;-61
2022/04/15 03:02:08;;;;;;;1.02;0.88;;;;;;;10.17;79.77;101223.41;4879766;29;20539;-61
2022/04/15 03:04:36;;;;;;;2.33;2.13;;;;;;;10.27;79.30;101219.91;4879589;29;20508;-61
2022/04/15 03:07:04;;;;;;;1.83;1.73;;;;;;;10.45;78.63;101218.72;4879805;29;20057;-61
2022/04/15 03:09:32;;;;;;;1.55;1.00;;;;;;;10.39;78.41;101222.47;4879729;29;20500;-61
2022/04/15 03:12:00;;;;;;;2.92;2.38;;;;;;;10.41;78.46;101223.03;4879926;29;20056;-61
2022/04/15 03:14:28;;;;;;;2.55;1.73;;;;;;;10.36;78.79;101217.53;4879809;29;20053;-61
2022/04/15 03:16:56;;;;;;;1.98;1.45;;;;;;;10.25;79.13;101224.00;4879916;29;20493;-61
2022/04/15 03:19:23;;;;;;;3.30;1.70;;;;;;;10.10;79.83;101222.81;4879793;29;20412;-61
2022/04/15 03:21:51;;;;;;;3.42;1.65;;;;;;;10.06;79.89;101218.94;4878439;29;20056;-61
2022/04/15 03:24:19;;;;;;;3.17;2.22;;;;;;;10.27;79.04;101222.66;4879039;29;20053;-61
2022/04/15 03:26:47;;;;;;;3.58;1.98;;;;;;;10.12;79.74;101217.88;4879535;29;20056;-61
2022/04/15 03:29:16;;;;;;;1.77;1.60;;;;;;;9.93;80.35;101229.22;4879758;29;20076;-61
2022/04/15 03:31:44;;;;;;;3.63;1.60;;;;;;;9.81;81.54;101214.91;4879106;29;20060;-62
2022/04/15 03:34:13;;;;;;;4.20;1.83;;;;;;;9.72;81.60;101213.72;4879693;29;20116;-61
2022/04/15 03:36:41;;;;;;;2.08;1.40;;;;;;;9.68;81.72;101213.44;4879389;29;20112;-61
2022/04/15 03:39:09;;;;;;;4.32;2.22;;;;;;;9.72;81.41;101213.72;4879693;29;20060;-61
2022/04/15 03:41:37;;;;;;;2.72;1.67;;;;;;;9.69;81.65;101209.59;4879207;29;20060;-61
2022/04/15 03:44:05;;;;;;;2.28;2.08;;;;;;;9.67;82.00;101215.31;4878831;29;20045;-61
2022/04/15 03:46:34;;;;;;;4.53;2.13;;;;;;;9.65;82.15;101219.41;4878734;29;20061;-61
2022/04/15 03:49:02;;;;;;;3.45;1.45;;;;;;;9.62;82.24;101223.47;4878114;29;20052;-61
2022/04/15 03:51:30;;;;;;;2.30;1.65;;;;;;;9.68;82.30;101216.97;4879205;29;20064;-61
2022/04/15 03:53:58;;;;;;;2.38;1.90;;;;;;;10.04;80.35;101230.16;4879064;29;20516;-61
2022/04/15 03:56:26;;;;;;;2.10;2.00;;;;;;;9.94;80.56;101230.88;4877910;29;20057;-61
2022/04/15 03:58:54;;;;;;;2.47;1.45;;;;;;;9.92;80.38;101226.78;4878908;29;20076;-61
2022/04/15 04:01:22;;;;;;;2.60;2.45;;;;;;;9.84;80.94;101227.22;4878267;29;20080;-61
2022/04/15 04:03:51;;;;;;;2.50;2.30;;;;;;;9.70;81.51;101219.44;4878392;29;20056;-61
2022/04/15 04:06:19;;;;;;;2.67;1.98;;;;;;;9.64;82.05;101225.94;4878653;29;20064;-62
2022/04/15 04:08:50;;;;;;;4.15;2.72;;;;;;;9.56;82.55;101224.50;4878847;29;20514;-62
2022/04/15 04:11:19;;;;;;;5.35;2.75;;;;;;;9.55;82.79;101233.78;4878891;29;20052;-62
2022/04/15 04:13:48;;;;;;;1.92;1.63;;;;;;;9.59;82.25;101236.81;4878320;29;20049;-62
2022/04/15 04:16:18;;;;;;;4.05;2.03;;;;;;;9.65;82.19;101228.44;4878775;29;20045;-62
2022/04/15 04:18:47;;;;;;;1.88;1.63;;;;;;;9.60;82.63;101236.56;4878841;29;20053;-62
2022/04/15 04:21:14;;;;;;;2.25;2.15;;;;;;;9.68;82.21;101238.81;4878674;29;20048;-62
2022/04/15 04:23:42;;;;;;;2.17;1.98;;;;;;;9.70;82.20;101240.47;4878304;29;20053;-61
2022/04/15 04:26:10;;;;;;;4.20;1.38;;;;;;;9.78;81.27;101249.03;4878473;29;20068;-62
2022/04/15 04:28:38;;;;;;;2.85;2.10;;;;;;;9.80;82.19;101251.53;4878528;29;20412;-62
2022/04/15 04:31:06;;;;;;;2.55;2.35;;;;;;;9.82;81.32;101249.34;4878670;29;20067;-62
2022/04/15 04:33:34;;;;;;;2.80;1.65;;;;;;;9.71;81.79;101250.31;4878309;29;20071;-62
2022/04/15 04:36:02;;;;;;;2.08;1.98;;;;;;;9.79;81.11;101255.34;4878594;29;20053;-61
2022/04/15 04:38:31;;;;;;;2.95;1.60;;;;;;;9.77;81.59;101265.69;4878391;29;20505;-61
2022/04/15 04:40:59;;;;;;;1.35;1.25;;;;;;;9.79;81.28;101256.16;4877614;29;20985;-62
2022/04/15 04:43:27;;;;;;;2.05;1.83;;;;;;;9.74;81.62;101268.94;4878033;29;20501;-61
2022/04/15 04:45:55;;;;;;;4.03;2.40;;;;;;;9.79;81.20;101269.00;4878478;29;20060;-62
2022/04/15 04:48:23;;;;;;;2.20;1.48;;;;;;;9.81;81.10;101262.19;4878273;29;20057;-62
2022/04/15 04:50:51;;;;;;;3.85;2.00;;;;;;;9.82;80.96;101265.75;4877366;29;20061;-61
2022/04/15 04:53:19;;;;;;;2.63;1.55;;;;;;;9.80;81.10;101265.19;4877665;29;20053;-61
2022/04/15 04:55:47;;;;;;;2.03;1.92;;;;;;;9.91;80.53;101272.41;4878200;29;20388;-61
2022/04/15 04:58:15;;;;;;;4.22;2.03;;;;;;;10.05;80.18;101277.44;4878130;29;20056;-61
2022/04/15 05:00:43;;;;;;;1.77;1.55;;;;;;;10.21;78.99;101273.78;4877447;29;20076;-61
2022/04/15 05:03:11;;;;;;;1.95;1.80;;;;;;;10.27;78.79;101271.09;4878066;29;20496;-61
2022/04/15 05:05:39;;;;;;;1.70;1.60;;;;;;;10.37;78.58;101270.34;4877604;29;20053;-61
2022/04/15 05:08:07;;;;;;;3.47;1.88;;;;;;;10.33;78.87;101270.03;4868842;29;20049;-61
2022/04/15 05:10:35;;;;;;;2.00;1.80;;;;;;;10.59;78.02;101273.84;4877924;29;20045;-68
2022/04/15 05:13:03;;;;;;;2.30;2.15;;;;;;;10.83;76.42;101280.81;4861338;29;20404;-69
2022/04/15 05:15:32;;;;;;;1.58;1.08;;;;;;;10.95;75.79;101275.97;4846674;29;20048;-69
2022/04/15 05:18:00;;;;;;;3.28;2.47;;;;;;;11.13;75.77;101279.34;4862176;29;20400;-68
2022/04/15 05:20:29;;;;;;;2.38;2.08;;;;;;;11.34;74.75;101285.72;4861508;29;20045;-68
2022/04/15 05:22:57;;;;;;;2.60;2.40;;;;;;;11.51;73.56;101271.00;4859953;29;20052;-69
2022/04/15 05:25:25;;;;;;;2.67;2.47;;;;;;;11.58;73.20;101277.03;4855915;29;20389;-68
2022/04/15 05:27:54;;;;;;;5.03;3.00;;;;;;;11.76;72.48;101283.13;4860639;29;20049;-69
2022/04/15 05:30:22;;;;;;;2.42;2.22;;;;;;;11.80;72.00;101285.06;4860518;29;20519;-69
2022/04/15 05:32:50;;;;;;;2.60;2.38;;;;;;;11.95;71.34;101281.53;4861411;29;20075;-69
2022/04/15 05:35:18;;;;;;;3.05;2.40;;;;;;;11.98;71.28;101291.13;4876793;29;20048;-69
2022/04/15 05:37:50;;;;;;;5.35;2.75;;;;;;;12.13;70.55;101281.31;4874027;29;20497;-69
2022/04/15 05:40:22;;;;;;;6.38;3.42;;;;;;;12.17;70.36;101287.91;4876572;29;20072;-69
2022/04/15 05:42:50;;;;;;;5.68;2.20;;;;;;;12.38;69.64;101288.72;4878026;29;20045;-69
2022/04/15 05:45:18;;;;;;;4.15;2.45;;;;;;;12.62;68.63;101293.66;4878645;29;20052;-69
2022/04/15 05:47:46;;;;;;;3.28;2.63;;;;;;;12.84;67.42;101295.25;4872797;29;20053;-69
2022/04/15 05:50:14;;;;;;;3.40;3.10;;;;;;;13.09;66.68;101301.81;4878642;29;20400;-69
2022/04/15 05:52:42;;;;;;;4.68;3.00;;;;;;;13.10;66.38;101298.75;4881528;29;20057;-69
2022/04/15 05:55:10;;;;;;;3.58;1.98;;;;;;;13.21;66.35;101302.31;4881124;29;20515;-69
2022/04/15 05:57:38;;;;;;;3.25;2.95;;;;;;;13.27;65.80;101303.09;4879518;29;20496;-69
2022/04/15 06:00:09;;;;;;;4.03;2.53;;;;;;;13.27;66.09;101308.59;4880652;29;20052;-69
2022/04/15 06:02:40;;;;;;;7.57;2.90;;;;;;;13.41;65.80;101309.63;4880995;29;20041;-69
2022/04/15 06:05:09;;;;;;;4.45;2.75;;;;;;;13.27;66.20;101314.09;4881037;29;20057;-69
2022/04/15 06:07:37;;;;;;;4.60;2.60;;;;;;;13.28;66.21;101315.75;4881045;29;20056;-69
2022/04/15 06:10:05;;;;;;;3.08;2.08;;;;;;;13.38;65.98;101320.38;4879756;29;20037;-69
2022/04/15 06:15:28;;;;;;;4.30;2.53;;;;;;;13.53;65.23;101317.59;4881055;29;20060;-69
2022/04/15 06:17:58;;;;;;;4.35;2.22;;;;;;;13.58;65.32;101319.50;4878312;29;20056;-69
2022/04/15 06:20:27;;;;;;;3.08;2.13;;;;;;;13.70;64.68;101316.44;4880018;29;20404;-69
2022/04/15 06:22:56;;;;;;;2.67;2.47;;;;;;;13.66;66.28;101313.44;4880733;29;20049;-58
2022/04/15 06:25:26;;;;;;;3.10;2.60;;;;;;;13.78;65.92;101306.78;4880988;29;20381;-58
2022/04/15 06:27:55;;;;;;;8.27;3.45;;;;;;;13.82;66.83;101318.81;4880697;29;20056;-58
2022/04/15 06:30:24;;;;;;;3.17;2.88;;;;;;;13.94;65.88;101311.03;4878946;29;20500;-58
2022/04/15 06:32:53;;;;;;;2.50;2.30;;;;;;;13.97;65.96;101304.16;4877354;29;20057;-58
2022/04/15 06:35:21;;;;;;;5.57;3.42;;;;;;;14.09;64.70;101310.13;4878590;29;20056;-58
2022/04/15 06:37:52;;;;;;;3.53;3.17;;;;;;;14.27;63.20;101318.81;4879818;29;20056;-58
2022/04/15 06:40:20;;;;;;;3.50;2.60;;;;;;;14.34;63.26;101299.22;4879492;29;20072;-58
2022/04/15 06:42:48;;;;;;;4.45;2.90;;;;;;;14.47;62.72;101317.03;4878857;29;20045;-58
2022/04/15 06:45:23;;;;;;;2.55;2.28;;;;;;;14.61;61.17;101306.13;4878912;29;20405;-58
2022/04/15 06:47:51;;;;;;;4.30;2.33;;;;;;;14.71;60.65;101311.56;4879526;29;20053;-58
2022/04/15 06:50:20;;;;;;;3.80;2.60;;;;;;;14.88;59.43;101300.13;4878568;29;20048;-58
2022/04/15 06:52:48;;;;;;;3.30;3.00;;;;;;;14.94;59.39;101303.66;4878022;29;20393;-58
2022/04/15 06:55:16;;;;;;;10.23;3.63;;;;;;;14.98;58.91;101303.88;4877366;29;20044;-58
2022/04/15 06:57:44;;;;;;;2.60;2.20;;;;;;;14.98;57.88;101303.88;4877623;29;20056;-58
2022/04/15 07:00:13;;;;;;;3.22;2.78;;;;;;;15.10;57.78;101307.06;4878529;29;20504;-58
2022/04/15 07:02:41;;;;;;;2.75;2.28;;;;;;;15.18;57.29;101306.44;4878979;29;20048;-58
2022/04/15 07:05:10;;;;;;;5.85;3.42;;;;;;;15.27;56.20;101309.34;4878816;29;20049;-58
2022/04/15 07:07:38;;;;;;;4.10;2.70;;;;;;;15.43;55.60;101312.75;4877527;29;20053;-58
2022/04/15 07:10:08;;;;;;;2.35;2.03;;;;;;;15.43;55.29;101314.66;4868003;29;20049;-58
2022/04/15 07:12:41;;;;;;;5.03;2.83;;;;;;;15.47;55.50;101321.25;4875097;29;20053;-70
2022/04/15 07:15:09;;;;;;;3.40;2.35;;;;;;;15.56;56.37;101318.66;4859328;29;20056;-69
2022/04/15 07:17:37;;;;;;;2.88;2.35;;;;;;;15.68;55.72;101323.72;4876971;29;20041;-69
2022/04/15 07:20:06;;;;;;;4.18;2.92;;;;;;;15.76;53.92;101317.56;4878842;29;20061;-69
2022/04/15 07:22:34;;;;;;;3.42;2.70;;;;;;;15.94;54.14;101318.69;4878754;29;20056;-70
2022/04/15 07:25:02;;;;;;;3.38;2.25;;;;;;;16.11;51.47;101325.63;4877823;29;20045;-69
2022/04/15 07:27:30;;;;;;;3.67;2.67;;;;;;;16.20;51.33;101321.09;4879343;29;20061;-69
2022/04/15 07:29:59;;;;;;;7.40;3.08;;;;;;;16.15;50.79;101312.06;4891749;29;20049;-70
2022/04/15 07:32:29;;;;;;;5.25;2.75;;;;;;;16.22;50.43;101302.28;4878611;29;20053;-69
2022/04/15 07:34:56;;;;;;;2.17;1.85;;;;;;;16.26;50.03;101302.50;4876185;29;20056;-69
2022/04/15 07:37:24;;;;;;;2.92;1.77;;;;;;;16.26;48.13;101294.19;4879307;29;20068;-69
2022/04/15 07:39:52;;;;;;;2.58;2.38;;;;;;;16.46;50.23;101294.97;4879170;29;20049;-69
2022/04/15 07:42:20;;;;;;;4.80;2.50;;;;;;;16.53;46.49;101287.94;4878137;29;20048;-69
2022/04/15 07:44:48;;;;;;;8.73;2.92;;;;;;;16.57;46.02;101290.91;4877991;29;20397;-69
2022/04/15 07:47:16;;;;;;;9.57;2.83;;;;;;;16.60;44.87;101284.78;4878260;29;20045;-69
2022/04/15 07:50:05;;;;;;;3.47;2.33;;;;;;;16.74;44.54;101284.00;4878935;29;20385;-69
2022/04/15 07:52:33;;;;;;;4.82;3.45;;;;;;;16.83;45.26;101284.09;4879154;29;20056;-69
2022/04/15 07:55:01;;;;;;;3.63;2.70;;;;;;;16.91;46.13;101284.22;4877611;29;20060;-69
2022/04/15 07:57:30;;;;;;;5.10;2.42;;;;;;;16.93;44.78;101281.16;4878708;29;20049;-69
2022/04/15 07:59:58;;;;;;;7.28;2.53;;;;;;;16.77;44.21;101280.63;4878756;29;20396;-69
2022/04/15 08:02:26;;;;;;;6.93;3.03;;;;;;;16.86;44.43;101286.28;4878712;29;20056;-69
2022/04/15 08:04:54;;;;;;;3.83;2.55;;;;;;;17.02;44.41;101286.78;4878687;29;20072;-69
2022/04/15 08:07:22;;;;;;;4.60;2.55;;;;;;;17.12;44.37;101281.09;4878429;29;20056;-69
2022/04/15 08:09:50;;;;;;;5.32;2.50;;;;;;;17.17;42.78;101288.47;4878779;29;20523;-69
2022/04/15 08:12:18;;;;;;;4.38;2.17;;;;;;;17.33;43.68;101289.78;4878926;29;20053;-69
2022/04/15 08:14:46;;;;;;;5.18;2.28;;;;;;;17.48;42.72;101279.50;4878844;29;20396;-69
2022/04/15 08:17:14;;;;;;;3.25;2.35;;;;;;;17.60;42.58;101276.22;4876914;29;20052;-69
2022/04/15 08:19:43;;;;;;;3.28;2.20;;;;;;;17.59;42.08;101280.94;4875145;29;20123;-69
2022/04/15 08:22:11;;;;;;;4.95;3.58;;;;;;;17.60;40.57;101282.56;4877181;29;20045;-69
2022/04/15 08:24:42;;;;;;;5.47;2.63;;;;;;;17.61;42.34;101280.63;4876415;29;20049;-68
2022/04/15 08:27:11;;;;;;;4.28;2.28;;;;;;;17.62;41.14;101279.50;4878172;29;20045;-68
2022/04/15 08:29:39;;;;;;;8.38;3.10;;;;;;;17.58;41.13;101284.00;4877180;29;20052;-69
2022/04/15 08:32:08;;;;;;;2.22;1.67;;;;;;;17.73;41.38;101286.44;4877121;29;20045;-68
2022/04/15 08:34:37;;;;;;;4.75;2.90;;;;;;;17.88;40.88;101280.84;4877207;29;20365;-68
2022/04/15 08:37:06;;;;;;;3.67;2.13;;;;;;;17.85;40.80;101282.31;4877620;29;20047;-68
2022/04/15 08:39:34;;;;;;;3.78;2.78;;;;;;;17.86;40.03;101276.44;4875479;29;20051;-68
2022/04/15 08:42:08;;;;;;;3.40;2.28;;;;;;;18.09;41.03;101278.44;4877384;29;20049;-68
2022/04/15 08:44:36;;;;;;;4.50;2.27;;;;;;;18.25;41.80;101279.72;4891064;29;20069;-68
2022/04/15 08:47:06;;;;;;;5.28;1.85;;;;;;;18.48;40.92;101285.22;4876225;29;20037;-68
2022/04/15 08:49:34;;;;;;;5.88;3.90;;;;;;;18.67;40.39;101290.53;4876952;29;20053;-61
2022/04/15 08:52:03;;;;;;;4.18;2.15;;;;;;;18.90;40.25;101286.88;4877499;29;20068;-61
2022/04/15 08:54:31;;;;;;;6.78;3.03;;;;;;;19.21;38.91;101286.03;4877647;29;20048;-61
2022/04/15 08:56:59;;;;;;;3.25;2.78;;;;;;;19.30;38.48;101284.13;4876972;29;20531;-61
2022/04/15 08:59:27;;;;;;;4.63;3.13;;;;;;;19.19;40.01;101285.56;4876718;29;20941;-61
2022/04/15 09:01:55;;;;;;;7.35;3.88;;;;;;;19.49;39.83;101285.78;4875056;29;20056;-61
2022/04/15 09:04:25;;;;;;;6.10;3.33;;;;;;;19.77;39.71;101287.47;4875088;29;20064;-61
2022/04/15 09:07:00;;;;;;;5.60;2.92;;;;;;;19.78;39.05;101269.66;4876752;29;20056;-61
2022/04/15 09:09:31;;;;;;;;;;;;;;;19.82;39.73;101278.97;4877865;29;20048;-61
2022/04/15 09:12:04;;;;;;;5.65;3.63;;;;;;;20.35;37.93;101265.91;4877554;29;19928;-62
2022/04/15 09:14:34;;;;;;;5.25;3.42;;;;;;;20.18;38.10;101271.47;4877307;29;20385;-61
2022/04/15 09:17:04;;;;;;;4.95;2.83;;;;;;;20.24;37.42;101264.59;4890797;29;20049;-61
2022/04/15 09:19:33;;;;;;;3.33;2.58;;;;;;;20.54;37.11;101254.38;4877699;29;20052;-61
2022/04/15 09:22:03;;;;;;;5.90;2.97;;;;;;;21.00;37.74;101261.41;4879465;29;20052;-61
2022/04/15 09:24:34;;;;;;;5.07;3.20;;;;;;;20.94;37.60;101267.19;4880887;29;20385;-61
2022/04/15 09:27:06;;;;;;;4.40;3.40;;;;;;;20.99;36.07;101266.19;4881105;29;20045;-61
2022/04/15 09:29:38;;;;;;;3.78;2.97;;;;;;;20.79;36.96;101262.16;4895033;29;20057;-61
2022/04/15 09:32:09;;;;;;;2.90;2.63;;;;;;;20.90;37.75;101252.31;4879178;29;20057;-61
2022/04/15 09:34:58;;;;;;;3.58;2.67;;;;;;;21.33;36.27;101255.19;4880500;29;20049;-60
2022/04/15 09:37:31;;;;;;;5.85;3.10;;;;;;;21.66;36.15;101259.22;4876399;29;20056;-61
2022/04/15 09:40:26;;;;;;;5.82;2.97;;;;;;;21.32;36.97;101250.78;4877763;29;20052;-60
2022/04/15 09:42:56;;;;;;;3.72;2.85;;;;;;;21.24;36.65;101257.19;4879319;29;20041;-61
2022/04/15 09:45:30;;;;;;;4.25;3.17;;;;;;;21.66;36.42;101248.91;4880641;29;20056;-61
2022/04/15 09:48:03;;;;;;;8.50;2.85;;;;;;;21.39;37.39;101253.00;4880921;29;20056;-61
2022/04/15 09:50:37;;;;;;;8.30;3.75;;;;;;;21.68;36.66;101265.25;4878678;29;20060;-61
2022/04/15 09:53:13;;;;;;;7.13;3.10;;;;;;;21.30;36.42;101258.63;4880779;29;20060;-61
2022/04/15 09:55:46;;;;;;;5.30;2.75;;;;;;;21.66;36.44;101256.44;4880982;29;20060;-61
2022/04/15 09:58:16;;;;;;;7.10;3.58;;;;;;;21.52;36.42;101259.47;4881118;29;20400;-61
2022/04/15 10:00:48;;;;;;;8.57;3.58;;;;;;;21.42;38.03;101255.13;4880922;29;20370;-61
2022/04/15 10:03:23;;;;;;;5.25;3.50;;;;;;;21.74;35.50;101256.38;4881243;29;20053;-61
2022/04/15 10:05:56;;;;;;;7.20;3.38;;;;;;;21.53;37.23;101261.09;4879096;29;20068;-61
2022/04/15 10:08:25;;;;;;;7.77;3.27;;;;;;;21.57;37.72;101253.72;4879696;29;20064;-61
2022/04/15 10:10:54;;;;;;;3.60;2.72;;;;;;;22.04;36.52;101255.47;4880278;29;20305;-61
2022/04/15 10:13:27;;;;;;;7.78;3.22;;;;;;;22.43;36.53;101249.66;4880716;29;20048;-61
2022/04/15 10:15:57;;;;;;;6.00;3.78;;;;;;;22.11;36.40;101244.59;4856956;29;20515;-70
2022/04/15 10:18:26;;;;;;;7.45;3.47;;;;;;;21.69;36.31;101247.38;4874196;29;20413;-70
2022/04/15 10:20:55;;;;;;;6.03;3.58;;;;;;;21.40;36.98;101241.53;4878018;29;20053;-70
2022/04/15 10:23:24;;;;;;;6.18;3.55;;;;;;;21.16;37.58;101237.44;4880444;29;20049;-70
2022/04/15 10:25:52;;;;;;;6.97;4.43;;;;;;;21.03;37.20;101233.78;4876470;29;20056;-70
2022/04/15 10:28:37;;;;;;;6.45;3.72;;;;;;;20.87;38.56;101239.06;4876881;29;20049;-70
2022/04/15 10:31:08;;;;;;;5.20;3.33;;;;;;;20.79;37.87;101234.34;4878545;29;20049;-70
2022/04/15 10:33:41;;;;;;;5.95;2.60;;;;;;;20.87;37.72;101233.50;4890963;29;20049;-70
2022/04/15 10:36:25;;;;;;;5.45;3.50;;;;;;;20.84;36.77;101228.59;4877314;29;20048;-70
2022/04/15 10:39:19;;;;;;;;;;;;;;;20.77;37.17;101226.31;4878814;29;20064;-70
2022/04/15 10:41:53;;;;;;;3.80;2.80;;;;;;;20.94;37.40;101219.91;4878352;29;19928;-71
2022/04/15 10:44:24;;;;;;;;;;;;;;;20.99;36.61;101229.19;4878810;29;20060;-70
2022/04/15 10:46:52;;;;;;;5.40;3.35;;;;;;;21.11;37.89;101217.34;4877597;29;20421;-70
2022/04/15 10:49:23;;;;;;;6.65;3.90;;;;;;;21.24;37.37;101216.28;4876527;29;20071;-70
2022/04/15 10:51:52;;;;;;;4.32;2.70;;;;;;;21.33;36.42;101210.66;4878005;29;20060;-70
2022/04/15 10:54:35;;;;;;;5.43;3.15;;;;;;;21.40;36.80;101210.91;4879971;29;20041;-71
2022/04/15 10:57:09;;;;;;;5.53;3.55;;;;;;;21.54;37.81;101207.03;4875065;29;20057;-70
2022/04/15 11:02:47;;;;;;;8.50;3.65;;;;;;;21.40;37.55;101194.22;4878878;29;20053;-71
2022/04/15 11:05:30;;;;;;;;;;;;;;;21.48;37.69;101192.53;4879042;29;20052;-70
2022/04/15 11:08:04;;;;;;;3.03;2.53;;;;;;;21.44;37.18;101192.38;4879916;29;20303;-70
2022/04/15 11:10:41;;;;;;;;;;;;;;;21.57;37.78;101200.81;4880332;29;20052;-70
2022/04/15 11:13:10;;;;;;;6.10;3.03;;;;;;;21.77;37.39;101190.00;4879806;29;19923;-70
2022/04/15 11:15:59;;;;;;;7.60;3.25;;;;;;;21.75;37.49;101180.03;4879819;29;20056;-71
2022/04/15 11:18:43;;;;;;;2.58;2.03;;;;;;;21.89;37.53;101173.31;4878599;29;20405;-71
2022/04/15 11:21:22;;;;;;;9.53;3.87;;;;;;;21.88;37.40;101171.72;4879634;29;20045;-70
2022/04/15 11:23:56;;;;;;;4.20;3.22;;;;;;;21.99;37.56;101172.06;4879157;29;20392;-71
2022/04/15 11:26:26;;;;;;;5.68;2.65;;;;;;;22.05;37.38;101175.47;4879496;29;20072;-71
2022/04/15 11:28:57;;;;;;;5.10;3.15;;;;;;;22.09;37.11;101170.84;4879334;29;20441;-71
2022/04/15 11:31:52;;;;;;;5.75;3.03;;;;;;;22.28;36.99;101171.13;4874739;29;20516;-70
2022/04/15 11:34:23;;;;;;;5.38;3.40;;;;;;;22.17;36.47;101157.94;4855145;29;20075;-70
2022/04/15 11:36:56;;;;;;;8.10;3.17;;;;;;;22.05;37.00;101158.75;4877218;29;20080;-70
2022/04/15 11:39:25;;;;;;;6.07;3.08;;;;;;;22.10;36.83;101152.97;4877218;29;20049;-71
2022/04/15 11:41:57;;;;;;;4.60;2.90;;;;;;;22.47;36.43;101154.97;4875554;29;20049;-71
2022/04/15 11:44:30;;;;;;;6.95;3.17;;;;;;;22.46;36.45;101150.56;4873465;29;20053;-70